sensor_id;sensor_type;location;lat;lon;timestamp;P1;durP1;ratioP1;P2;durP2;ratioP2
57111;SDS011;42992;49.084;19.300;2022-09-25T00:01:10;22.70;;;13.65;;
57111;SDS011;42992;49.084;19.300;2022-09-25T00:03:36;22.08;;;13.85;;
57111;SDS011;42992;49.084;19.300;2022-09-25T00:06:05;17.48;;;12.38;;
57111;SDS011;42992;49.084;19.300;2022-09-25T00:08:31;12.40;;;9.60;;
57111;SDS011;42992;49.084;19.300;2022-09-25T00:10:57;15.48;;;9.45;;
57111;SDS011;42992;49.084;19.300;2022-09-25T00:13:22;12.98;;;9.45;;
57111;SDS011;42992;49.084;19.300;2022-09-25T00:15:52;14.48;;;9.43;;
57111;SDS011;42992;49.084;19.300;2022-09-25T00:18:19;20.50;;;11.90;;
57111;SDS011;42992;49.084;19.300;2022-09-25T00:21:03;16.10;;;10.82;;
57111;SDS011;42992;49.084;19.300;2022-09-25T00:23:29;16.25;;;9.43;;
57111;SDS011;42992;49.084;19.300;2022-09-25T00:25:54;17.30;;;8.82;;
57111;SDS011;42992;49.084;19.300;2022-09-25T00:28:20;16.13;;;9.68;;
57111;SDS011;42992;49.084;19.300;2022-09-25T00:30:45;14.00;;;8.18;;
57111;SDS011;42992;49.084;19.300;2022-09-25T00:33:10;9.30;;;5.97;;
57111;SDS011;42992;49.084;19.300;2022-09-25T00:35:36;10.32;;;6.78;;
57111;SDS011;42992;49.084;19.300;2022-09-25T00:38:01;11.65;;;7.00;;
57111;SDS011;42992;49.084;19.300;2022-09-25T00:40:26;18.25;;;10.52;;
57111;SDS011;42992;49.084;19.300;2022-09-25T00:42:51;16.42;;;10.93;;
57111;SDS011;42992;49.084;19.300;2022-09-25T00:45:20;20.40;;;12.43;;
57111;SDS011;42992;49.084;19.300;2022-09-25T00:47:53;21.73;;;12.40;;
57111;SDS011;42992;49.084;19.300;2022-09-25T00:52:48;20.17;;;11.05;;
57111;SDS011;42992;49.084;19.300;2022-09-25T00:55:13;23.63;;;12.25;;
57111;SDS011;42992;49.084;19.300;2022-09-25T00:57:39;15.43;;;10.57;;
57111;SDS011;42992;49.084;19.300;2022-09-25T01:00:10;18.90;;;10.85;;
57111;SDS011;42992;49.084;19.300;2022-09-25T01:02:38;20.83;;;10.73;;
57111;SDS011;42992;49.084;19.300;2022-09-25T01:05:09;18.10;;;10.13;;
57111;SDS011;42992;49.084;19.300;2022-09-25T01:07:36;14.32;;;8.90;;
57111;SDS011;42992;49.084;19.300;2022-09-25T01:10:02;16.77;;;9.38;;
57111;SDS011;42992;49.084;19.300;2022-09-25T01:12:28;18.13;;;9.48;;
57111;SDS011;42992;49.084;19.300;2022-09-25T01:14:54;19.80;;;9.35;;
57111;SDS011;42992;49.084;19.300;2022-09-25T01:22:53;15.45;;;8.77;;
57111;SDS011;42992;49.084;19.300;2022-09-25T01:30:29;14.30;;;9.68;;
57111;SDS011;42992;49.084;19.300;2022-09-25T01:32:59;13.57;;;8.95;;
57111;SDS011;42992;49.084;19.300;2022-09-25T01:40:37;13.75;;;9.15;;
57111;SDS011;42992;49.084;19.300;2022-09-25T01:43:06;14.68;;;9.70;;
57111;SDS011;42992;49.084;19.300;2022-09-25T01:45:38;16.85;;;10.23;;
57111;SDS011;42992;49.084;19.300;2022-09-25T01:48:06;13.70;;;10.00;;
57111;SDS011;42992;49.084;19.300;2022-09-25T01:50:39;16.98;;;10.18;;
57111;SDS011;42992;49.084;19.300;2022-09-25T01:53:06;16.77;;;9.02;;
57111;SDS011;42992;49.084;19.300;2022-09-25T01:55:36;18.30;;;9.73;;
57111;SDS011;42992;49.084;19.300;2022-09-25T02:00:29;15.45;;;9.02;;
57111;SDS011;42992;49.084;19.300;2022-09-25T02:02:59;13.43;;;9.35;;
57111;SDS011;42992;49.084;19.300;2022-09-25T02:05:33;16.75;;;8.82;;
57111;SDS011;42992;49.084;19.300;2022-09-25T02:08:04;14.73;;;8.25;;
57111;SDS011;42992;49.084;19.300;2022-09-25T02:10:35;16.77;;;9.05;;
57111;SDS011;42992;49.084;19.300;2022-09-25T02:13:04;12.95;;;8.48;;
57111;SDS011;42992;49.084;19.300;2022-09-25T02:15:31;12.02;;;8.13;;
57111;SDS011;42992;49.084;19.300;2022-09-25T02:17:59;12.55;;;8.02;;
57111;SDS011;42992;49.084;19.300;2022-09-25T02:20:48;13.50;;;8.95;;
57111;SDS011;42992;49.084;19.300;2022-09-25T02:23:18;13.48;;;8.57;;
57111;SDS011;42992;49.084;19.300;2022-09-25T02:25:47;15.27;;;8.73;;
57111;SDS011;42992;49.084;19.300;2022-09-25T02:28:14;15.68;;;7.75;;
57111;SDS011;42992;49.084;19.300;2022-09-25T02:30:39;13.27;;;7.90;;
57111;SDS011;42992;49.084;19.300;2022-09-25T02:33:05;12.05;;;8.65;;
57111;SDS011;42992;49.084;19.300;2022-09-25T02:35:31;13.50;;;8.65;;
57111;SDS011;42992;49.084;19.300;2022-09-25T02:37:56;11.07;;;7.50;;
57111;SDS011;42992;49.084;19.300;2022-09-25T02:40:33;13.15;;;8.23;;
57111;SDS011;42992;49.084;19.300;2022-09-25T02:43:10;14.00;;;8.60;;
57111;SDS011;42992;49.084;19.300;2022-09-25T02:45:52;11.80;;;7.55;;
57111;SDS011;42992;49.084;19.300;2022-09-25T02:48:31;14.10;;;8.90;;
57111;SDS011;42992;49.084;19.300;2022-09-25T02:51:20;14.20;;;8.02;;
57111;SDS011;42992;49.084;19.300;2022-09-25T02:53:52;12.13;;;7.72;;
57111;SDS011;42992;49.084;19.300;2022-09-25T02:56:24;13.90;;;8.30;;
57111;SDS011;42992;49.084;19.300;2022-09-25T02:58:53;15.15;;;8.30;;
57111;SDS011;42992;49.084;19.300;2022-09-25T03:01:21;11.02;;;8.43;;
57111;SDS011;42992;49.084;19.300;2022-09-25T03:03:48;11.55;;;8.10;;
57111;SDS011;42992;49.084;19.300;2022-09-25T03:06:15;13.63;;;8.70;;
57111;SDS011;42992;49.084;19.300;2022-09-25T03:08:43;12.57;;;8.57;;
57111;SDS011;42992;49.084;19.300;2022-09-25T03:11:11;11.43;;;7.78;;
57111;SDS011;42992;49.084;19.300;2022-09-25T03:13:37;11.38;;;8.73;;
57111;SDS011;42992;49.084;19.300;2022-09-25T03:18:36;12.85;;;8.23;;
57111;SDS011;42992;49.084;19.300;2022-09-25T03:21:02;13.48;;;7.90;;
57111;SDS011;42992;49.084;19.300;2022-09-25T03:23:28;13.90;;;8.27;;
57111;SDS011;42992;49.084;19.300;2022-09-25T03:25:53;12.73;;;8.18;;
57111;SDS011;42992;49.084;19.300;2022-09-25T03:28:19;12.15;;;8.13;;
57111;SDS011;42992;49.084;19.300;2022-09-25T03:30:53;13.45;;;7.75;;
57111;SDS011;42992;49.084;19.300;2022-09-25T03:33:19;13.45;;;8.73;;
57111;SDS011;42992;49.084;19.300;2022-09-25T03:35:44;9.85;;;6.90;;
57111;SDS011;42992;49.084;19.300;2022-09-25T03:38:09;11.18;;;7.38;;
57111;SDS011;42992;49.084;19.300;2022-09-25T03:40:36;11.73;;;8.23;;
57111;SDS011;42992;49.084;19.300;2022-09-25T03:43:01;13.60;;;7.55;;
57111;SDS011;42992;49.084;19.300;2022-09-25T03:45:27;13.38;;;7.25;;
57111;SDS011;42992;49.084;19.300;2022-09-25T03:47:52;12.88;;;7.03;;
57111;SDS011;42992;49.084;19.300;2022-09-25T03:50:17;12.43;;;7.38;;
57111;SDS011;42992;49.084;19.300;2022-09-25T03:52:43;14.48;;;8.30;;
57111;SDS011;42992;49.084;19.300;2022-09-25T03:55:08;13.68;;;8.52;;
57111;SDS011;42992;49.084;19.300;2022-09-25T03:57:36;15.95;;;8.27;;
57111;SDS011;42992;49.084;19.300;2022-09-25T04:00:01;14.65;;;8.35;;
57111;SDS011;42992;49.084;19.300;2022-09-25T04:02:27;12.10;;;8.45;;
57111;SDS011;42992;49.084;19.300;2022-09-25T04:04:53;15.75;;;8.50;;
57111;SDS011;42992;49.084;19.300;2022-09-25T04:07:19;11.30;;;8.77;;
57111;SDS011;42992;49.084;19.300;2022-09-25T04:09:44;12.35;;;7.80;;
57111;SDS011;42992;49.084;19.300;2022-09-25T04:12:10;11.32;;;7.95;;
57111;SDS011;42992;49.084;19.300;2022-09-25T04:14:35;14.15;;;8.30;;
57111;SDS011;42992;49.084;19.300;2022-09-25T04:17:00;13.13;;;7.57;;
57111;SDS011;42992;49.084;19.300;2022-09-25T04:19:26;12.15;;;8.00;;
57111;SDS011;42992;49.084;19.300;2022-09-25T04:21:51;13.23;;;8.05;;
57111;SDS011;42992;49.084;19.300;2022-09-25T04:24:16;9.80;;;7.32;;
57111;SDS011;42992;49.084;19.300;2022-09-25T04:27:00;14.77;;;7.47;;
57111;SDS011;42992;49.084;19.300;2022-09-25T04:29:25;10.73;;;7.32;;
57111;SDS011;42992;49.084;19.300;2022-09-25T04:31:52;12.20;;;7.85;;
57111;SDS011;42992;49.084;19.300;2022-09-25T04:34:35;11.65;;;7.47;;
57111;SDS011;42992;49.084;19.300;2022-09-25T04:37:00;11.23;;;7.05;;
57111;SDS011;42992;49.084;19.300;2022-09-25T04:39:26;15.20;;;8.18;;
57111;SDS011;42992;49.084;19.300;2022-09-25T04:41:51;11.63;;;8.10;;
57111;SDS011;42992;49.084;19.300;2022-09-25T04:44:16;10.63;;;7.38;;
57111;SDS011;42992;49.084;19.300;2022-09-25T04:46:42;10.80;;;7.30;;
57111;SDS011;42992;49.084;19.300;2022-09-25T04:49:07;11.73;;;7.57;;
57111;SDS011;42992;49.084;19.300;2022-09-25T04:51:32;11.70;;;7.68;;
57111;SDS011;42992;49.084;19.300;2022-09-25T04:53:57;12.32;;;7.60;;
57111;SDS011;42992;49.084;19.300;2022-09-25T04:56:23;11.52;;;8.50;;
57111;SDS011;42992;49.084;19.300;2022-09-25T04:58:49;13.10;;;8.27;;
57111;SDS011;42992;49.084;19.300;2022-09-25T05:01:15;12.88;;;8.70;;
57111;SDS011;42992;49.084;19.300;2022-09-25T05:03:41;13.55;;;7.90;;
57111;SDS011;42992;49.084;19.300;2022-09-25T05:06:06;11.02;;;8.18;;
57111;SDS011;42992;49.084;19.300;2022-09-25T05:08:32;11.75;;;8.13;;
57111;SDS011;42992;49.084;19.300;2022-09-25T05:10:57;10.77;;;8.30;;
57111;SDS011;42992;49.084;19.300;2022-09-25T05:13:22;15.30;;;8.73;;
57111;SDS011;42992;49.084;19.300;2022-09-25T05:15:48;10.80;;;7.72;;
57111;SDS011;42992;49.084;19.300;2022-09-25T05:18:18;12.88;;;7.90;;
57111;SDS011;42992;49.084;19.300;2022-09-25T05:20:44;16.52;;;8.63;;
57111;SDS011;42992;49.084;19.300;2022-09-25T05:23:10;12.60;;;8.35;;
57111;SDS011;42992;49.084;19.300;2022-09-25T05:25:35;13.75;;;8.18;;
57111;SDS011;42992;49.084;19.300;2022-09-25T05:28:01;12.73;;;8.18;;
57111;SDS011;42992;49.084;19.300;2022-09-25T05:30:27;12.50;;;8.27;;
57111;SDS011;42992;49.084;19.300;2022-09-25T05:32:53;11.98;;;8.40;;
57111;SDS011;42992;49.084;19.300;2022-09-25T05:35:19;13.15;;;9.32;;
57111;SDS011;42992;49.084;19.300;2022-09-25T05:37:45;14.32;;;10.10;;
57111;SDS011;42992;49.084;19.300;2022-09-25T05:40:11;16.40;;;10.52;;
57111;SDS011;42992;49.084;19.300;2022-09-25T05:42:36;15.98;;;9.75;;
57111;SDS011;42992;49.084;19.300;2022-09-25T05:45:02;12.23;;;8.70;;
57111;SDS011;42992;49.084;19.300;2022-09-25T05:47:27;11.70;;;7.85;;
57111;SDS011;42992;49.084;19.300;2022-09-25T05:49:52;14.38;;;8.23;;
57111;SDS011;42992;49.084;19.300;2022-09-25T05:52:18;12.32;;;7.90;;
57111;SDS011;42992;49.084;19.300;2022-09-25T05:54:43;11.48;;;9.00;;
57111;SDS011;42992;49.084;19.300;2022-09-25T05:57:08;13.30;;;9.48;;
57111;SDS011;42992;49.084;19.300;2022-09-25T05:59:33;13.48;;;9.23;;
57111;SDS011;42992;49.084;19.300;2022-09-25T06:01:59;11.65;;;8.73;;
57111;SDS011;42992;49.084;19.300;2022-09-25T06:04:24;11.38;;;8.30;;
57111;SDS011;42992;49.084;19.300;2022-09-25T06:06:50;12.25;;;7.63;;
57111;SDS011;42992;49.084;19.300;2022-09-25T06:09:16;14.88;;;8.70;;
57111;SDS011;42992;49.084;19.300;2022-09-25T06:11:41;12.75;;;8.38;;
57111;SDS011;42992;49.084;19.300;2022-09-25T06:14:07;16.27;;;8.93;;
57111;SDS011;42992;49.084;19.300;2022-09-25T06:16:33;15.05;;;8.93;;
57111;SDS011;42992;49.084;19.300;2022-09-25T06:18:59;15.20;;;8.82;;
57111;SDS011;42992;49.084;19.300;2022-09-25T06:21:24;15.00;;;9.57;;
57111;SDS011;42992;49.084;19.300;2022-09-25T06:23:49;13.40;;;9.82;;
57111;SDS011;42992;49.084;19.300;2022-09-25T06:26:15;18.35;;;9.32;;
57111;SDS011;42992;49.084;19.300;2022-09-25T06:28:40;16.35;;;9.38;;
57111;SDS011;42992;49.084;19.300;2022-09-25T06:31:06;12.52;;;8.45;;
57111;SDS011;42992;49.084;19.300;2022-09-25T06:33:31;16.00;;;8.77;;
57111;SDS011;42992;49.084;19.300;2022-09-25T06:35:56;15.88;;;9.02;;
57111;SDS011;42992;49.084;19.300;2022-09-25T06:38:22;13.43;;;8.70;;
57111;SDS011;42992;49.084;19.300;2022-09-25T06:40:50;18.02;;;9.43;;
57111;SDS011;42992;49.084;19.300;2022-09-25T06:43:15;14.05;;;8.80;;
57111;SDS011;42992;49.084;19.300;2022-09-25T06:45:41;14.80;;;8.68;;
57111;SDS011;42992;49.084;19.300;2022-09-25T06:48:08;12.88;;;9.15;;
57111;SDS011;42992;49.084;19.300;2022-09-25T06:50:41;12.52;;;8.35;;
57111;SDS011;42992;49.084;19.300;2022-09-25T06:53:07;13.98;;;9.18;;
57111;SDS011;42992;49.084;19.300;2022-09-25T06:55:33;12.13;;;8.75;;
57111;SDS011;42992;49.084;19.300;2022-09-25T06:58:02;13.98;;;8.75;;
57111;SDS011;42992;49.084;19.300;2022-09-25T07:00:28;14.48;;;8.77;;
57111;SDS011;42992;49.084;19.300;2022-09-25T07:02:53;11.68;;;8.20;;
57111;SDS011;42992;49.084;19.300;2022-09-25T07:05:37;12.50;;;8.68;;
57111;SDS011;42992;49.084;19.300;2022-09-25T07:08:02;15.75;;;9.23;;
57111;SDS011;42992;49.084;19.300;2022-09-25T07:10:27;14.38;;;9.38;;
57111;SDS011;42992;49.084;19.300;2022-09-25T07:12:53;17.90;;;10.25;;
57111;SDS011;42992;49.084;19.300;2022-09-25T07:15:18;12.95;;;9.45;;
57111;SDS011;42992;49.084;19.300;2022-09-25T07:17:44;14.27;;;8.30;;
57111;SDS011;42992;49.084;19.300;2022-09-25T07:20:10;13.57;;;8.82;;
57111;SDS011;42992;49.084;19.300;2022-09-25T07:22:38;11.48;;;8.40;;
57111;SDS011;42992;49.084;19.300;2022-09-25T07:25:03;11.23;;;8.00;;
57111;SDS011;42992;49.084;19.300;2022-09-25T07:27:29;13.98;;;9.25;;
57111;SDS011;42992;49.084;19.300;2022-09-25T07:29:54;13.30;;;9.13;;
57111;SDS011;42992;49.084;19.300;2022-09-25T07:32:20;17.50;;;9.50;;
57111;SDS011;42992;49.084;19.300;2022-09-25T07:34:45;13.15;;;9.38;;
57111;SDS011;42992;49.084;19.300;2022-09-25T07:37:14;16.60;;;9.57;;
57111;SDS011;42992;49.084;19.300;2022-09-25T07:39:39;16.70;;;10.57;;
57111;SDS011;42992;49.084;19.300;2022-09-25T07:42:04;13.75;;;10.73;;
57111;SDS011;42992;49.084;19.300;2022-09-25T07:44:30;14.43;;;9.77;;
57111;SDS011;42992;49.084;19.300;2022-09-25T07:46:56;14.60;;;9.32;;
57111;SDS011;42992;49.084;19.300;2022-09-25T07:49:21;16.58;;;9.02;;
57111;SDS011;42992;49.084;19.300;2022-09-25T07:51:46;10.85;;;8.07;;
57111;SDS011;42992;49.084;19.300;2022-09-25T07:54:12;12.93;;;8.18;;
57111;SDS011;42992;49.084;19.300;2022-09-25T07:56:37;14.40;;;9.10;;
57111;SDS011;42992;49.084;19.300;2022-09-25T07:59:02;12.88;;;8.50;;
57111;SDS011;42992;49.084;19.300;2022-09-25T08:01:27;18.10;;;8.27;;
57111;SDS011;42992;49.084;19.300;2022-09-25T08:03:53;15.80;;;8.70;;
57111;SDS011;42992;49.084;19.300;2022-09-25T08:06:18;12.35;;;8.68;;
57111;SDS011;42992;49.084;19.300;2022-09-25T08:08:43;12.10;;;8.45;;
57111;SDS011;42992;49.084;19.300;2022-09-25T08:11:10;15.02;;;9.45;;
57111;SDS011;42992;49.084;19.300;2022-09-25T08:13:36;12.75;;;8.57;;
57111;SDS011;42992;49.084;19.300;2022-09-25T08:16:06;14.90;;;9.07;;
57111;SDS011;42992;49.084;19.300;2022-09-25T08:18:31;11.50;;;8.50;;
57111;SDS011;42992;49.084;19.300;2022-09-25T08:21:00;12.05;;;8.52;;
57111;SDS011;42992;49.084;19.300;2022-09-25T08:23:26;16.55;;;8.70;;
57111;SDS011;42992;49.084;19.300;2022-09-25T08:25:52;13.02;;;8.55;;
57111;SDS011;42992;49.084;19.300;2022-09-25T08:28:17;12.05;;;7.82;;
57111;SDS011;42992;49.084;19.300;2022-09-25T08:30:42;13.38;;;7.60;;
57111;SDS011;42992;49.084;19.300;2022-09-25T08:33:11;12.40;;;7.78;;
57111;SDS011;42992;49.084;19.300;2022-09-25T08:35:37;11.25;;;8.45;;
57111;SDS011;42992;49.084;19.300;2022-09-25T08:38:03;9.27;;;6.78;;
57111;SDS011;42992;49.084;19.300;2022-09-25T08:40:29;10.20;;;6.63;;
57111;SDS011;42992;49.084;19.300;2022-09-25T08:42:55;10.05;;;6.63;;
57111;SDS011;42992;49.084;19.300;2022-09-25T08:45:31;10.50;;;6.07;;
57111;SDS011;42992;49.084;19.300;2022-09-25T08:48:26;10.57;;;6.35;;
57111;SDS011;42992;49.084;19.300;2022-09-25T08:51:11;9.45;;;6.25;;
57111;SDS011;42992;49.084;19.300;2022-09-25T08:53:37;10.05;;;6.38;;
57111;SDS011;42992;49.084;19.300;2022-09-25T08:56:03;8.70;;;6.43;;
57111;SDS011;42992;49.084;19.300;2022-09-25T09:01:14;10.27;;;6.95;;
57111;SDS011;42992;49.084;19.300;2022-09-25T09:06:14;10.93;;;6.90;;
57111;SDS011;42992;49.084;19.300;2022-09-25T09:08:39;10.85;;;6.78;;
57111;SDS011;42992;49.084;19.300;2022-09-25T09:13:48;12.52;;;6.80;;
57111;SDS011;42992;49.084;19.300;2022-09-25T09:16:22;10.43;;;6.75;;
57111;SDS011;42992;49.084;19.300;2022-09-25T09:18:50;10.13;;;6.90;;
57111;SDS011;42992;49.084;19.300;2022-09-25T09:26:42;11.32;;;6.88;;
57111;SDS011;42992;49.084;19.300;2022-09-25T09:29:18;11.80;;;6.60;;
57111;SDS011;42992;49.084;19.300;2022-09-25T09:34:44;10.93;;;7.00;;
57111;SDS011;42992;49.084;19.300;2022-09-25T09:42:31;10.23;;;6.45;;
57111;SDS011;42992;49.084;19.300;2022-09-25T09:45:15;7.07;;;5.50;;
57111;SDS011;42992;49.084;19.300;2022-09-25T09:52:52;8.82;;;5.07;;
57111;SDS011;42992;49.084;19.300;2022-09-25T09:57:46;7.50;;;4.60;;
57111;SDS011;42992;49.084;19.300;2022-09-25T10:00:13;8.77;;;4.72;;
57111;SDS011;42992;49.084;19.300;2022-09-25T10:02:40;8.43;;;4.22;;
57111;SDS011;42992;49.084;19.300;2022-09-25T10:05:08;6.60;;;4.57;;
57111;SDS011;42992;49.084;19.300;2022-09-25T10:07:37;5.85;;;4.20;;
57111;SDS011;42992;49.084;19.300;2022-09-25T10:10:13;5.85;;;4.53;;
57111;SDS011;42992;49.084;19.300;2022-09-25T10:12:40;6.47;;;4.22;;
57111;SDS011;42992;49.084;19.300;2022-09-25T10:15:15;5.70;;;3.83;;
57111;SDS011;42992;49.084;19.300;2022-09-25T10:17:41;6.77;;;4.83;;
57111;SDS011;42992;49.084;19.300;2022-09-25T10:20:16;6.22;;;4.50;;
57111;SDS011;42992;49.084;19.300;2022-09-25T10:22:42;8.60;;;5.90;;
57111;SDS011;42992;49.084;19.300;2022-09-25T10:25:09;10.90;;;4.80;;
57111;SDS011;42992;49.084;19.300;2022-09-25T10:27:38;8.10;;;4.47;;
57111;SDS011;42992;49.084;19.300;2022-09-25T10:35:20;6.82;;;4.53;;
57111;SDS011;42992;49.084;19.300;2022-09-25T10:37:53;5.70;;;3.75;;
57111;SDS011;42992;49.084;19.300;2022-09-25T10:40:23;6.57;;;3.42;;
57111;SDS011;42992;49.084;19.300;2022-09-25T10:42:49;7.45;;;3.92;;
57111;SDS011;42992;49.084;19.300;2022-09-25T10:45:30;7.22;;;3.85;;
57111;SDS011;42992;49.084;19.300;2022-09-25T10:47:55;5.95;;;4.00;;
57111;SDS011;42992;49.084;19.300;2022-09-25T10:50:39;8.85;;;5.10;;
57111;SDS011;42992;49.084;19.300;2022-09-25T10:53:09;12.70;;;5.18;;
57111;SDS011;42992;49.084;19.300;2022-09-25T10:55:50;7.63;;;4.53;;
57111;SDS011;42992;49.084;19.300;2022-09-25T10:58:26;6.90;;;4.32;;
57111;SDS011;42992;49.084;19.300;2022-09-25T11:00:54;6.68;;;4.68;;
57111;SDS011;42992;49.084;19.300;2022-09-25T11:03:30;7.03;;;4.47;;
57111;SDS011;42992;49.084;19.300;2022-09-25T11:05:57;9.85;;;4.82;;
57111;SDS011;42992;49.084;19.300;2022-09-25T11:08:25;10.85;;;4.38;;
57111;SDS011;42992;49.084;19.300;2022-09-25T11:10:54;6.22;;;3.83;;
57111;SDS011;42992;49.084;19.300;2022-09-25T11:13:22;10.45;;;4.20;;
57111;SDS011;42992;49.084;19.300;2022-09-25T11:15:51;5.75;;;3.92;;
57111;SDS011;42992;49.084;19.300;2022-09-25T11:21:02;5.82;;;3.67;;
57111;SDS011;42992;49.084;19.300;2022-09-25T11:23:30;6.32;;;3.97;;
57111;SDS011;42992;49.084;19.300;2022-09-25T11:28:29;8.10;;;4.85;;
57111;SDS011;42992;49.084;19.300;2022-09-25T11:33:35;10.77;;;6.03;;
57111;SDS011;42992;49.084;19.300;2022-09-25T11:36:27;8.35;;;5.70;;
57111;SDS011;42992;49.084;19.300;2022-09-25T11:38:53;8.77;;;5.35;;
57111;SDS011;42992;49.084;19.300;2022-09-25T11:54:19;8.30;;;5.68;;
57111;SDS011;42992;49.084;19.300;2022-09-25T11:56:54;9.23;;;6.60;;
57111;SDS011;42992;49.084;19.300;2022-09-25T12:01:56;8.75;;;5.80;;
57111;SDS011;42992;49.084;19.300;2022-09-25T12:30:17;10.20;;;6.45;;
57111;SDS011;42992;49.084;19.300;2022-09-25T12:32:52;10.60;;;5.93;;
57111;SDS011;42992;49.084;19.300;2022-09-25T12:35:28;7.50;;;5.57;;
57111;SDS011;42992;49.084;19.300;2022-09-25T12:37:58;8.85;;;6.00;;
57111;SDS011;42992;49.084;19.300;2022-09-25T12:50:27;12.38;;;8.02;;
57111;SDS011;42992;49.084;19.300;2022-09-25T12:52:56;11.55;;;7.00;;
57111;SDS011;42992;49.084;19.300;2022-09-25T12:55:23;9.27;;;6.93;;
57111;SDS011;42992;49.084;19.300;2022-09-25T12:57:58;13.00;;;7.80;;
57111;SDS011;42992;49.084;19.300;2022-09-25T13:00:25;10.73;;;7.65;;
57111;SDS011;42992;49.084;19.300;2022-09-25T13:05:44;11.88;;;6.32;;
57111;SDS011;42992;49.084;19.300;2022-09-25T13:10:44;10.38;;;6.50;;
57111;SDS011;42992;49.084;19.300;2022-09-25T13:13:13;10.35;;;6.97;;
57111;SDS011;42992;49.084;19.300;2022-09-25T13:15:43;7.97;;;5.60;;
57111;SDS011;42992;49.084;19.300;2022-09-25T13:18:15;7.70;;;5.95;;
57111;SDS011;42992;49.084;19.300;2022-09-25T13:20:45;10.27;;;6.72;;
57111;SDS011;42992;49.084;19.300;2022-09-25T13:23:12;8.45;;;6.10;;
57111;SDS011;42992;49.084;19.300;2022-09-25T13:25:41;11.80;;;7.18;;
57111;SDS011;42992;49.084;19.300;2022-09-25T13:28:08;9.73;;;7.10;;
57111;SDS011;42992;49.084;19.300;2022-09-25T13:30:38;8.82;;;6.20;;
57111;SDS011;42992;49.084;19.300;2022-09-25T13:33:04;11.40;;;7.63;;
57111;SDS011;42992;49.084;19.300;2022-09-25T13:35:30;9.73;;;6.80;;
57111;SDS011;42992;49.084;19.300;2022-09-25T13:38:07;10.43;;;7.05;;
57111;SDS011;42992;49.084;19.300;2022-09-25T13:40:33;9.90;;;7.43;;
57111;SDS011;42992;49.084;19.300;2022-09-25T13:43:22;9.55;;;7.72;;
57111;SDS011;42992;49.084;19.300;2022-09-25T13:48:37;12.32;;;7.28;;
57111;SDS011;42992;49.084;19.300;2022-09-25T13:53:52;11.30;;;7.50;;
57111;SDS011;42992;49.084;19.300;2022-09-25T13:56:21;10.43;;;7.45;;
57111;SDS011;42992;49.084;19.300;2022-09-25T14:01:35;10.25;;;7.60;;
57111;SDS011;42992;49.084;19.300;2022-09-25T14:04:06;12.43;;;7.43;;
57111;SDS011;42992;49.084;19.300;2022-09-25T14:06:32;8.98;;;7.63;;
57111;SDS011;42992;49.084;19.300;2022-09-25T14:08:58;11.55;;;8.77;;
57111;SDS011;42992;49.084;19.300;2022-09-25T14:11:27;14.52;;;10.43;;
57111;SDS011;42992;49.084;19.300;2022-09-25T14:13:53;13.05;;;8.82;;
57111;SDS011;42992;49.084;19.300;2022-09-25T14:18:48;13.15;;;10.38;;
57111;SDS011;42992;49.084;19.300;2022-09-25T14:21:14;11.82;;;8.27;;
57111;SDS011;42992;49.084;19.300;2022-09-25T14:23:47;14.23;;;9.18;;
57111;SDS011;42992;49.084;19.300;2022-09-25T14:26:20;16.70;;;9.77;;
57111;SDS011;42992;49.084;19.300;2022-09-25T14:28:46;11.82;;;9.25;;
57111;SDS011;42992;49.084;19.300;2022-09-25T14:36:28;15.88;;;9.70;;
57111;SDS011;42992;49.084;19.300;2022-09-25T14:46:54;11.90;;;7.75;;
57111;SDS011;42992;49.084;19.300;2022-09-25T14:49:29;11.82;;;8.80;;
57111;SDS011;42992;49.084;19.300;2022-09-25T14:51:57;12.02;;;9.68;;
57111;SDS011;42992;49.084;19.300;2022-09-25T14:54:23;13.88;;;9.60;;
57111;SDS011;42992;49.084;19.300;2022-09-25T14:56:52;15.48;;;8.50;;
57111;SDS011;42992;49.084;19.300;2022-09-25T14:59:23;12.43;;;8.98;;
57111;SDS011;42992;49.084;19.300;2022-09-25T15:01:50;15.15;;;9.75;;
57111;SDS011;42992;49.084;19.300;2022-09-25T15:04:26;12.07;;;9.38;;
57111;SDS011;42992;49.084;19.300;2022-09-25T15:07:00;10.57;;;8.10;;
57111;SDS011;42992;49.084;19.300;2022-09-25T15:09:30;14.05;;;10.07;;
57111;SDS011;42992;49.084;19.300;2022-09-25T15:11:59;13.60;;;10.27;;
57111;SDS011;42992;49.084;19.300;2022-09-25T15:14:31;14.50;;;10.43;;
57111;SDS011;42992;49.084;19.300;2022-09-25T15:16:56;16.40;;;11.77;;
57111;SDS011;42992;49.084;19.300;2022-09-25T15:19:41;12.25;;;9.38;;
57111;SDS011;42992;49.084;19.300;2022-09-25T15:22:15;11.30;;;8.70;;
57111;SDS011;42992;49.084;19.300;2022-09-25T15:24:46;14.43;;;9.60;;
57111;SDS011;42992;49.084;19.300;2022-09-25T15:27:12;14.23;;;10.38;;
57111;SDS011;42992;49.084;19.300;2022-09-25T15:29:41;16.30;;;13.05;;
57111;SDS011;42992;49.084;19.300;2022-09-25T15:32:13;13.73;;;10.57;;
57111;SDS011;42992;49.084;19.300;2022-09-25T15:34:39;14.18;;;10.68;;
57111;SDS011;42992;49.084;19.300;2022-09-25T15:39:39;15.02;;;10.38;;
57111;SDS011;42992;49.084;19.300;2022-09-25T15:42:04;12.95;;;9.43;;
57111;SDS011;42992;49.084;19.300;2022-09-25T15:44:29;14.20;;;10.77;;
57111;SDS011;42992;49.084;19.300;2022-09-25T15:46:56;14.32;;;11.00;;
57111;SDS011;42992;49.084;19.300;2022-09-25T15:49:26;13.65;;;9.55;;
57111;SDS011;42992;49.084;19.300;2022-09-25T15:51:54;12.80;;;9.90;;
57111;SDS011;42992;49.084;19.300;2022-09-25T15:54:32;14.45;;;10.63;;
57111;SDS011;42992;49.084;19.300;2022-09-25T15:56:59;11.20;;;9.32;;
57111;SDS011;42992;49.084;19.300;2022-09-25T16:01:52;10.15;;;8.40;;
57111;SDS011;42992;49.084;19.300;2022-09-25T16:04:36;13.60;;;8.90;;
57111;SDS011;42992;49.084;19.300;2022-09-25T16:09:59;20.27;;;14.95;;
57111;SDS011;42992;49.084;19.300;2022-09-25T16:12:26;20.38;;;14.13;;
57111;SDS011;42992;49.084;19.300;2022-09-25T16:14:53;13.65;;;10.80;;
57111;SDS011;42992;49.084;19.300;2022-09-25T16:20:06;17.02;;;12.18;;
57111;SDS011;42992;49.084;19.300;2022-09-25T16:22:39;19.63;;;12.55;;
57111;SDS011;42992;49.084;19.300;2022-09-25T16:27:48;17.05;;;13.93;;
57111;SDS011;42992;49.084;19.300;2022-09-25T16:30:14;18.65;;;13.32;;
57111;SDS011;42992;49.084;19.300;2022-09-25T16:32:43;17.17;;;12.68;;
57111;SDS011;42992;49.084;19.300;2022-09-25T16:35:14;14.38;;;11.57;;
57111;SDS011;42992;49.084;19.300;2022-09-25T16:42:40;15.13;;;11.77;;
57111;SDS011;42992;49.084;19.300;2022-09-25T16:50:48;13.63;;;10.63;;
57111;SDS011;42992;49.084;19.300;2022-09-25T16:53:13;15.13;;;10.75;;
57111;SDS011;42992;49.084;19.300;2022-09-25T16:55:46;15.85;;;11.52;;
57111;SDS011;42992;49.084;19.300;2022-09-25T16:58:12;15.20;;;11.75;;
57111;SDS011;42992;49.084;19.300;2022-09-25T17:00:38;13.05;;;11.13;;
57111;SDS011;42992;49.084;19.300;2022-09-25T17:03:03;18.65;;;14.50;;
57111;SDS011;42992;49.084;19.300;2022-09-25T17:05:29;20.08;;;16.42;;
57111;SDS011;42992;49.084;19.300;2022-09-25T17:07:55;19.02;;;15.70;;
57111;SDS011;42992;49.084;19.300;2022-09-25T17:10:23;21.63;;;17.20;;
57111;SDS011;42992;49.084;19.300;2022-09-25T17:12:48;19.98;;;16.48;;
57111;SDS011;42992;49.084;19.300;2022-09-25T17:15:19;16.88;;;14.55;;
57111;SDS011;42992;49.084;19.300;2022-09-25T17:17:47;17.30;;;13.82;;